Hildegaard — C6QU3 — position and weather

sailwx.info

Track history (hours):
 
Tides and Currents Weather Stations Pressure Air Temp Water Temp Dewpoint Dewpoint Depression Visibility Wind Speed Wind Dir Waves Ship Positions

Hildegaard

Last reported at 2015-Jul-05 03:20 UTC. Time now 2015-Jul-05 04:27 UTC.
Position N 54°03' E 007°28'.

Length 248 m; draft 11.9 m.

Type: Ship (hazmat cat A). MMSI: 308574000.

Date/timePositionNaut miles runAvg speedWind from/ knotsBaromVisibWave heightAir tempDewpointWater temp
2015-Jul-05 03:20N 54°03' E 007°28'0 0.2
2015-Jul-05 02:17N 54°03' E 007°28'0 0.1
2015-Jul-05 01:32N 54°03' E 007°28'0 0.1
2015-Jul-05 00:33N 54°03' E 007°28'8 7.9
2015-Jul-04 23:34N 54°11' E 007°27'1211.9
2015-Jul-04 22:34N 54°20' E 007°13'1312.9
2015-Jul-04 21:33N 54°27' E 006°56'1312.6
2015-Jul-04 20:33N 54°34' E 006°36'1212.2
2015-Jul-04 19:33N 54°38' E 006°17'1311.7
2015-Jul-04 18:25N 54°44' E 005°56'1011.4
2015-Jul-04 17:30N 54°49' E 005°40'15710.9
2015-Jul-04 03:08N 56°00' E 001°35'8411.0
2015-Jul-03 19:30N 56°05' W 000°56'1111.3
2015-Jul-03 18:29N 56°05' W 001°16'1111.6
2015-Jul-03 17:33N 56°05' W 001°36'1211.8
2015-Jul-03 16:34N 56°05' W 001°57'1212.0
2015-Jul-03 15:33N 56°06' W 002°18'7 6.9
2015-Jul-03 14:33N 56°05' W 002°31'2 1.5
2015-Jul-03 13:32N 56°05' W 002°34'0 0.0
2015-Jul-03 12:32N 56°05' W 002°34'0 0.0
2015-Jul-03 11:23N 56°05' W 002°34'0 0.0
2015-Jul-03 10:26N 56°05' W 002°34'0 0.1
2015-Jul-03 09:26N 56°05' W 002°34'0 0.2
2015-Jul-03 08:26N 56°05' W 002°33'0 0.0
2015-Jul-03 07:29N 56°05' W 002°33'0 0.1
2015-Jul-03 06:29N 56°05' W 002°33'0 0.0
2015-Jul-03 05:29N 56°05' W 002°33'0 0.0
2015-Jul-03 04:32N 56°05' W 002°33'0 0.0
2015-Jul-03 03:32N 56°05' W 002°33'0 0.0
2015-Jul-03 02:32N 56°05' W 002°33'0 0.1
2015-Jul-03 01:32N 56°05' W 002°34'0 0.1
2015-Jul-03 00:32N 56°05' W 002°34'0 0.1
2015-Jul-02 23:32N 56°05' W 002°34'0 0.0
2015-Jul-02 22:32N 56°05' W 002°34'0 0.0
2015-Jul-02 21:23N 56°05' W 002°34'0 0.1
2015-Jul-02 20:26N 56°05' W 002°34'0 0.2
2015-Jul-02 19:26N 56°05' W 002°33'0 0.1
2015-Jul-02 18:23N 56°05' W 002°33'0 0.0
2015-Jul-02 17:29N 56°05' W 002°33'0 0.0
2015-Jul-02 16:29N 56°05' W 002°33'0 0.1
2015-Jul-02 15:29N 56°05' W 002°33'0 0.1
2015-Jul-02 14:29N 56°05' W 002°34'0 0.1
2015-Jul-02 13:32N 56°05' W 002°34'0 0.0
2015-Jul-02 12:32N 56°05' W 002°34'0 0.1
2015-Jul-02 11:32N 56°05' W 002°34'0 0.0
2015-Jul-02 10:05N 56°05' W 002°34'0 0.1
2015-Jul-02 09:32N 56°05' W 002°34'0 0.1
2015-Jul-02 08:32N 56°05' W 002°34'0 0.1
2015-Jul-02 07:23N 56°05' W 002°34'0 0.3
2015-Jul-02 06:26N 56°05' W 002°33'0 0.0
2015-Jul-02 05:26N 56°05' W 002°33'0 0.0
2015-Jul-02 04:26N 56°05' W 002°33'0 0.1
2015-Jul-02 03:29N 56°05' W 002°33'0 0.1
2015-Jul-02 02:29N 56°05' W 002°34'0 0.0
2015-Jul-02 01:29N 56°05' W 002°34'0 0.0
2015-Jul-02 00:32N 56°05' W 002°34'0 0.1
2015-Jul-01 23:32N 56°05' W 002°34'0 0.1
2015-Jul-01 22:32N 56°05' W 002°34'0 0.0
2015-Jul-01 21:32N 56°05' W 002°34'0 0.0
2015-Jul-01 20:32N 56°05' W 002°34'0 0.0
2015-Jul-01 19:17N 56°05' W 002°34'0 0.0
2015-Jul-01 18:23N 56°05' W 002°34'0 0.1
2015-Jul-01 17:23N 56°05' W 002°33'0 0.2
2015-Jul-01 16:26N 56°05' W 002°34'0 0.1
2015-Jul-01 15:26N 56°05' W 002°34'0 0.1
2015-Jul-01 14:23N 56°05' W 002°34'0 0.0
2015-Jul-01 13:29N 56°05' W 002°34'0 0.0
2015-Jul-01 12:26N 56°05' W 002°34'0 0.0
2015-Jul-01 11:29N 56°05' W 002°34'0 0.0
2015-Jul-01 10:32N 56°05' W 002°34'0 0.0
2015-Jul-01 09:32N 56°05' W 002°34'0 0.0
2015-Jul-01 08:32N 56°05' W 002°34'0 0.0
2015-Jul-01 07:32N 56°05' W 002°34'0 0.1
2015-Jul-01 06:20N 56°05' W 002°33'0 0.2
2015-Jul-01 05:32N 56°05' W 002°33'0 0.0
2015-Jul-01 04:32N 56°05' W 002°33'0 0.0
2015-Jul-01 03:23N 56°05' W 002°33'0 0.0
2015-Jul-01 02:26N 56°05' W 002°33'0 0.2
2015-Jul-01 01:26N 56°05' W 002°33'0 0.2
2015-Jul-01 00:26N 56°05' W 002°33'0 0.1
2015-Jun-30 23:29N 56°05' W 002°34'0 0.0
2015-Jun-30 22:14N 56°05' W 002°34'0 0.0
2015-Jun-30 21:29N 56°05' W 002°34'0 0.0
2015-Jun-30 20:32N 56°05' W 002°34'0 0.0
2015-Jun-30 19:32N 56°05' W 002°34'0 0.2
2015-Jun-30 18:32N 56°05' W 002°33'0 0.1
2015-Jun-30 17:32N 56°05' W 002°33'0 0.0
2015-Jun-30 16:32N 56°05' W 002°33'0 0.0
2015-Jun-30 15:23N 56°05' W 002°33'0 0.0
2015-Jun-30 14:32N 56°05' W 002°33'0 0.0
2015-Jun-30 13:23N 56°05' W 002°33'0 0.1
2015-Jun-30 12:26N 56°05' W 002°33'0 0.1
2015-Jun-30 11:26N 56°05' W 002°33'0 0.1
2015-Jun-30 10:11N 56°05' W 002°33'0 0.1
2015-Jun-30 09:29N 56°05' W 002°33'0 0.0
2015-Jun-30 08:29N 56°05' W 002°33'0 0.0
2015-Jun-30 07:29N 56°05' W 002°33'0 0.2
2015-Jun-30 06:32N 56°05' W 002°33'0 0.1
2015-Jun-30 05:32N 56°05' W 002°33'0 0.0
2015-Jun-30 04:32N 56°05' W 002°33'0 0.0
2015-Jun-30 03:32N 56°05' W 002°33'0 0.0
2015-Jun-30 02:20N 56°05' W 002°33'0 0.0
2015-Jun-30 01:23N 56°05' W 002°33'0 0.1
2015-Jun-30 00:32N 56°05' W 002°33'0 0.1
2015-Jun-29 23:23N 56°05' W 002°33'0 0.1
2015-Jun-29 22:26N 56°05' W 002°33'0 0.0
2015-Jun-29 21:26N 56°05' W 002°34'0 0.2
2015-Jun-29 20:26N 56°05' W 002°33'0 0.1
2015-Jun-29 19:29N 56°05' W 002°33'0 0.0
2015-Jun-29 18:29N 56°05' W 002°33'0 0.0
2015-Jun-29 17:29N 56°05' W 002°33'0 0.0
2015-Jun-29 16:32N 56°05' W 002°33'0 0.0
2015-Jun-29 15:32N 56°05' W 002°33'0 0.0
2015-Jun-29 14:32N 56°05' W 002°33'0 0.1
2015-Jun-29 13:32N 56°05' W 002°33'0 0.1
2015-Jun-29 12:20N 56°05' W 002°33'0 0.1
2015-Jun-29 11:20N 56°05' W 002°34'0 0.1
2015-Jun-29 10:32N 56°05' W 002°34'0 0.0
2015-Jun-29 09:23N 56°05' W 002°34'0 0.1
2015-Jun-29 08:26N 56°05' W 002°34'0 0.1
2015-Jun-29 07:26N 56°05' W 002°33'0 0.0
2015-Jun-29 06:26N 56°05' W 002°33'0 0.1
2015-Jun-29 05:29N 56°05' W 002°33'0 0.0
2015-Jun-29 04:26N 56°05' W 002°33'0 0.0
2015-Jun-29 03:29N 56°05' W 002°33'0 0.0
2015-Jun-29 02:32N 56°05' W 002°33'0 0.1
2015-Jun-29 01:32N 56°05' W 002°33'0 0.0
2015-Jun-29 00:32N 56°05' W 002°33'0 0.2
2015-Jun-28 23:32N 56°05' W 002°33'0 0.1
2015-Jun-28 22:32N 56°05' W 002°34'0 0.1
2015-Jun-28 21:32N 56°05' W 002°33'0 0.0
2015-Jun-28 20:32N 56°05' W 002°33'0 0.1
2015-Jun-28 19:23N 56°05' W 002°33'0 0.1
2015-Jun-28 18:26N 56°05' W 002°33'0 0.1
2015-Jun-28 17:26N 56°05' W 002°33'0 0.0
2015-Jun-28 16:26N 56°05' W 002°33'0 0.0
2015-Jun-28 15:29N 56°05' W 002°33'0 0.0
2015-Jun-28 14:29N 56°05' W 002°33'0 0.0
2015-Jun-28 13:32N 56°05' W 002°33'0 0.0
2015-Jun-28 12:32N 56°05' W 002°33'0 0.1
2015-Jun-28 11:32N 56°05' W 002°33'0 0.0
2015-Jun-28 10:32N 56°05' W 002°33'0 0.1
2015-Jun-28 09:32N 56°05' W 002°33'0 0.1
2015-Jun-28 08:32N 56°05' W 002°33'0 0.0
2015-Jun-28 07:32N 56°05' W 002°34'0 0.0
2015-Jun-28 06:32N 56°05' W 002°34'0 0.1
2015-Jun-28 05:23N 56°05' W 002°33'0 0.1
2015-Jun-28 04:26N 56°05' W 002°33'0 0.1
2015-Jun-28 03:26N 56°05' W 002°33'0 0.0
2015-Jun-28 02:26N 56°05' W 002°33'0 0.0
2015-Jun-28 01:29N 56°05' W 002°33'0 0.0
2015-Jun-28 00:29N 56°05' W 002°33'0 0.1
2015-Jun-27 23:32N 56°05' W 002°33'0 0.2
2015-Jun-27 22:32N 56°05' W 002°33'0 0.1
2015-Jun-27 21:32N 56°05' W 002°34'0 0.0
2015-Jun-27 20:29N 56°05' W 002°34'0 0.2
2015-Jun-27 19:29N 56°05' W 002°33'0 0.1
2015-Jun-27 18:17N 56°05' W 002°33'0 0.0
2015-Jun-27 17:32N 56°05' W 002°33'0 0.0
2015-Jun-27 16:23N 56°05' W 002°33'0 0.0
2015-Jun-27 15:23N 56°05' W 002°33'0 0.0
2015-Jun-27 14:26N 56°05' W 002°33'0 0.0
2015-Jun-27 13:26N 56°05' W 002°33'0 0.0
2015-Jun-27 12:26N 56°05' W 002°33'0 0.0
2015-Jun-27 11:29N 56°05' W 002°33'0 0.2
2015-Jun-27 10:29N 56°05' W 002°34'0 0.0
2015-Jun-27 09:32N 56°05' W 002°34'0 0.1
2015-Jun-27 08:32N 56°05' W 002°33'0 0.2
2015-Jun-27 07:32N 56°05' W 002°33'0 0.0
2015-Jun-27 06:32N 56°05' W 002°33'0 0.0
2015-Jun-27 05:32N 56°05' W 002°33'0 0.0
2015-Jun-27 04:32N 56°05' W 002°33'0 0.0
2015-Jun-27 03:32N 56°05' W 002°33'0 0.0
2015-Jun-27 02:23N 56°05' W 002°33'0 0.0
2015-Jun-27 01:23N 56°05' W 002°33'0 0.0
2015-Jun-27 00:26N 56°05' W 002°33'0 0.0
2015-Jun-26 23:26N 56°05' W 002°33'0 0.0
2015-Jun-26 22:26N 56°05' W 002°33'0 0.0
2015-Jun-26 21:29N 56°05' W 002°33'0 0.0
2015-Jun-26 20:29N 56°05' W 002°33'0 0.1
2015-Jun-26 19:32N 56°05' W 002°33'0 0.0
2015-Jun-26 18:29N 56°05' W 002°33'0 0.2
2015-Jun-26 17:17N 56°05' W 002°34'0 0.1
2015-Jun-26 16:20N 56°05' W 002°33'0 0.0
2015-Jun-26 15:32N 56°05' W 002°33'0 0.1
2015-Jun-26 14:32N 56°05' W 002°33'0 0.1
2015-Jun-26 13:32N 56°05' W 002°33'0 0.0
2015-Jun-26 12:23N 56°05' W 002°33'0 0.0
2015-Jun-26 11:23N 56°05' W 002°33'0 0.0
2015-Jun-26 10:26N 56°05' W 002°33'0 0.1
2015-Jun-26 09:26N 56°05' W 002°33'0 0.1
2015-Jun-26 08:29N 56°05' W 002°34'0 0.1
2015-Jun-26 07:29N 56°05' W 002°34'0 0.1
2015-Jun-26 06:29N 56°05' W 002°34'0 0.0
2015-Jun-26 05:32N 56°05' W 002°34'0 0.0
2015-Jun-26 04:32N 56°05' W 002°34'0 0.0
2015-Jun-26 03:32N 56°05' W 002°33'0 0.0
2015-Jun-26 02:32N 56°05' W 002°33'0 0.1
2015-Jun-26 01:32N 56°05' W 002°33'0 0.1
2015-Jun-26 00:32N 56°05' W 002°33'0 0.1
2015-Jun-25 23:32N 56°05' W 002°33'0 0.1
2015-Jun-25 22:23N 56°05' W 002°33'0 0.0
2015-Jun-25 21:23N 56°05' W 002°33'0 0.1
2015-Jun-25 20:26N 56°05' W 002°34'0 0.0
2015-Jun-25 19:26N 56°05' W 002°34'0 0.1
2015-Jun-25 18:29N 56°05' W 002°34'0 0.1
2015-Jun-25 17:26N 56°05' W 002°34'0 0.0
2015-Jun-25 16:29N 56°05' W 002°34'0 0.0
2015-Jun-25 15:32N 56°05' W 002°33'0 0.0
2015-Jun-25 14:29N 56°05' W 002°33'0 0.0
2015-Jun-25 13:32N 56°05' W 002°33'0 0.1
2015-Jun-25 11:05N 56°05' W 002°33'0 0.0
2015-Jun-25 10:32N 56°05' W 002°33'0 0.1
2015-Jun-25 09:32N 56°05' W 002°33'0 0.2
2015-Jun-25 08:32N 56°05' W 002°34'0 0.0
2015-Jun-25 07:23N 56°05' W 002°34'0 0.0
2015-Jun-25 06:26N 56°05' W 002°34'0 0.0
2015-Jun-25 05:26N 56°05' W 002°34'0 0.0
2015-Jun-25 04:29N 56°05' W 002°34'0 0.0
2015-Jun-25 03:29N 56°05' W 002°34'  
Track history (hours):
 
Tides and Currents Weather Stations Pressure Air Temp Water Temp Dewpoint Dewpoint Depression Visibility Wind Speed Wind Dir Waves Ship Positions

Hildegaard

Last reported at 2015-Jul-05 03:20 UTC. Time now 2015-Jul-05 04:27 UTC.
Position N 54°03' E 007°28'.

Length 248 m; draft 11.9 m.

Type: Ship (hazmat cat A). MMSI: 308574000.

Date/timePositionNaut miles runAvg speedWind from/ knotsBaromVisibWave heightAir tempDewpointWater temp
2015-Jul-05 03:20N 54°03' E 007°28'0 0.2
2015-Jul-05 02:17N 54°03' E 007°28'0 0.1
2015-Jul-05 01:32N 54°03' E 007°28'0 0.1
2015-Jul-05 00:33N 54°03' E 007°28'8 7.9
2015-Jul-04 23:34N 54°11' E 007°27'1211.9
2015-Jul-04 22:34N 54°20' E 007°13'1312.9
2015-Jul-04 21:33N 54°27' E 006°56'1312.6
2015-Jul-04 20:33N 54°34' E 006°36'1212.2
2015-Jul-04 19:33N 54°38' E 006°17'1311.7
2015-Jul-04 18:25N 54°44' E 005°56'1011.4
2015-Jul-04 17:30N 54°49' E 005°40'15710.9
2015-Jul-04 03:08N 56°00' E 001°35'8411.0
2015-Jul-03 19:30N 56°05' W 000°56'1111.3
2015-Jul-03 18:29N 56°05' W 001°16'1111.6
2015-Jul-03 17:33N 56°05' W 001°36'1211.8
2015-Jul-03 16:34N 56°05' W 001°57'1212.0
2015-Jul-03 15:33N 56°06' W 002°18'7 6.9
2015-Jul-03 14:33N 56°05' W 002°31'2 1.5
2015-Jul-03 13:32N 56°05' W 002°34'0 0.0
2015-Jul-03 12:32N 56°05' W 002°34'0 0.0
2015-Jul-03 11:23N 56°05' W 002°34'0 0.0
2015-Jul-03 10:26N 56°05' W 002°34'0 0.1
2015-Jul-03 09:26N 56°05' W 002°34'0 0.2
2015-Jul-03 08:26N 56°05' W 002°33'0 0.0
2015-Jul-03 07:29N 56°05' W 002°33'0 0.1
2015-Jul-03 06:29N 56°05' W 002°33'0 0.0
2015-Jul-03 05:29N 56°05' W 002°33'0 0.0
2015-Jul-03 04:32N 56°05' W 002°33'0 0.0
2015-Jul-03 03:32N 56°05' W 002°33'0 0.0
2015-Jul-03 02:32N 56°05' W 002°33'0 0.1
2015-Jul-03 01:32N 56°05' W 002°34'0 0.1
2015-Jul-03 00:32N 56°05' W 002°34'0 0.1
2015-Jul-02 23:32N 56°05' W 002°34'0 0.0
2015-Jul-02 22:32N 56°05' W 002°34'0 0.0
2015-Jul-02 21:23N 56°05' W 002°34'0 0.1
2015-Jul-02 20:26N 56°05' W 002°34'0 0.2
2015-Jul-02 19:26N 56°05' W 002°33'0 0.1
2015-Jul-02 18:23N 56°05' W 002°33'0 0.0
2015-Jul-02 17:29N 56°05' W 002°33'0 0.0
2015-Jul-02 16:29N 56°05' W 002°33'0 0.1
2015-Jul-02 15:29N 56°05' W 002°33'0 0.1
2015-Jul-02 14:29N 56°05' W 002°34'0 0.1
2015-Jul-02 13:32N 56°05' W 002°34'0 0.0
2015-Jul-02 12:32N 56°05' W 002°34'0 0.1
2015-Jul-02 11:32N 56°05' W 002°34'0 0.0
2015-Jul-02 10:05N 56°05' W 002°34'0 0.1
2015-Jul-02 09:32N 56°05' W 002°34'0 0.1
2015-Jul-02 08:32N 56°05' W 002°34'0 0.1
2015-Jul-02 07:23N 56°05' W 002°34'0 0.3
2015-Jul-02 06:26N 56°05' W 002°33'0 0.0
2015-Jul-02 05:26N 56°05' W 002°33'0 0.0
2015-Jul-02 04:26N 56°05' W 002°33'0 0.1
2015-Jul-02 03:29N 56°05' W 002°33'0 0.1
2015-Jul-02 02:29N 56°05' W 002°34'0 0.0
2015-Jul-02 01:29N 56°05' W 002°34'0 0.0
2015-Jul-02 00:32N 56°05' W 002°34'0 0.1
2015-Jul-01 23:32N 56°05' W 002°34'0 0.1
2015-Jul-01 22:32N 56°05' W 002°34'0 0.0
2015-Jul-01 21:32N 56°05' W 002°34'0 0.0
2015-Jul-01 20:32N 56°05' W 002°34'0 0.0
2015-Jul-01 19:17N 56°05' W 002°34'0 0.0
2015-Jul-01 18:23N 56°05' W 002°34'0 0.1
2015-Jul-01 17:23N 56°05' W 002°33'0 0.2
2015-Jul-01 16:26N 56°05' W 002°34'0 0.1
2015-Jul-01 15:26N 56°05' W 002°34'0 0.1
2015-Jul-01 14:23N 56°05' W 002°34'0 0.0
2015-Jul-01 13:29N 56°05' W 002°34'0 0.0
2015-Jul-01 12:26N 56°05' W 002°34'0 0.0
2015-Jul-01 11:29N 56°05' W 002°34'0 0.0
2015-Jul-01 10:32N 56°05' W 002°34'0 0.0
2015-Jul-01 09:32N 56°05' W 002°34'0 0.0
2015-Jul-01 08:32N 56°05' W 002°34'0 0.0
2015-Jul-01 07:32N 56°05' W 002°34'0 0.1
2015-Jul-01 06:20N 56°05' W 002°33'0 0.2
2015-Jul-01 05:32N 56°05' W 002°33'0 0.0
2015-Jul-01 04:32N 56°05' W 002°33'0 0.0
2015-Jul-01 03:23N 56°05' W 002°33'0 0.0
2015-Jul-01 02:26N 56°05' W 002°33'0 0.2
2015-Jul-01 01:26N 56°05' W 002°33'0 0.2
2015-Jul-01 00:26N 56°05' W 002°33'0 0.1
2015-Jun-30 23:29N 56°05' W 002°34'0 0.0
2015-Jun-30 22:14N 56°05' W 002°34'0 0.0
2015-Jun-30 21:29N 56°05' W 002°34'0 0.0
2015-Jun-30 20:32N 56°05' W 002°34'0 0.0
2015-Jun-30 19:32N 56°05' W 002°34'0 0.2
2015-Jun-30 18:32N 56°05' W 002°33'0 0.1
2015-Jun-30 17:32N 56°05' W 002°33'0 0.0
2015-Jun-30 16:32N 56°05' W 002°33'0 0.0
2015-Jun-30 15:23N 56°05' W 002°33'0 0.0
2015-Jun-30 14:32N 56°05' W 002°33'0 0.0
2015-Jun-30 13:23N 56°05' W 002°33'0 0.1
2015-Jun-30 12:26N 56°05' W 002°33'0 0.1
2015-Jun-30 11:26N 56°05' W 002°33'0 0.1
2015-Jun-30 10:11N 56°05' W 002°33'0 0.1
2015-Jun-30 09:29N 56°05' W 002°33'0 0.0
2015-Jun-30 08:29N 56°05' W 002°33'0 0.0
2015-Jun-30 07:29N 56°05' W 002°33'0 0.2
2015-Jun-30 06:32N 56°05' W 002°33'0 0.1
2015-Jun-30 05:32N 56°05' W 002°33'0 0.0
2015-Jun-30 04:32N 56°05' W 002°33'0 0.0
2015-Jun-30 03:32N 56°05' W 002°33'0 0.0
2015-Jun-30 02:20N 56°05' W 002°33'0 0.0
2015-Jun-30 01:23N 56°05' W 002°33'0 0.1
2015-Jun-30 00:32N 56°05' W 002°33'0 0.1
2015-Jun-29 23:23N 56°05' W 002°33'0 0.1
2015-Jun-29 22:26N 56°05' W 002°33'0 0.0
2015-Jun-29 21:26N 56°05' W 002°34'0 0.2
2015-Jun-29 20:26N 56°05' W 002°33'0 0.1
2015-Jun-29 19:29N 56°05' W 002°33'0 0.0
2015-Jun-29 18:29N 56°05' W 002°33'0 0.0
2015-Jun-29 17:29N 56°05' W 002°33'0 0.0
2015-Jun-29 16:32N 56°05' W 002°33'0 0.0
2015-Jun-29 15:32N 56°05' W 002°33'0 0.0
2015-Jun-29 14:32N 56°05' W 002°33'0 0.1
2015-Jun-29 13:32N 56°05' W 002°33'0 0.1
2015-Jun-29 12:20N 56°05' W 002°33'0 0.1
2015-Jun-29 11:20N 56°05' W 002°34'0 0.1
2015-Jun-29 10:32N 56°05' W 002°34'0 0.0
2015-Jun-29 09:23N 56°05' W 002°34'0 0.1
2015-Jun-29 08:26N 56°05' W 002°34'0 0.1
2015-Jun-29 07:26N 56°05' W 002°33'0 0.0
2015-Jun-29 06:26N 56°05' W 002°33'0 0.1
2015-Jun-29 05:29N 56°05' W 002°33'0 0.0
2015-Jun-29 04:26N 56°05' W 002°33'0 0.0
2015-Jun-29 03:29N 56°05' W 002°33'0 0.0
2015-Jun-29 02:32N 56°05' W 002°33'0 0.1
2015-Jun-29 01:32N 56°05' W 002°33'0 0.0
2015-Jun-29 00:32N 56°05' W 002°33'0 0.2
2015-Jun-28 23:32N 56°05' W 002°33'0 0.1
2015-Jun-28 22:32N 56°05' W 002°34'0 0.1
2015-Jun-28 21:32N 56°05' W 002°33'0 0.0
2015-Jun-28 20:32N 56°05' W 002°33'0 0.1
2015-Jun-28 19:23N 56°05' W 002°33'0 0.1
2015-Jun-28 18:26N 56°05' W 002°33'0 0.1
2015-Jun-28 17:26N 56°05' W 002°33'0 0.0
2015-Jun-28 16:26N 56°05' W 002°33'0 0.0
2015-Jun-28 15:29N 56°05' W 002°33'0 0.0
2015-Jun-28 14:29N 56°05' W 002°33'0 0.0
2015-Jun-28 13:32N 56°05' W 002°33'0 0.0
2015-Jun-28 12:32N 56°05' W 002°33'0 0.1
2015-Jun-28 11:32N 56°05' W 002°33'0 0.0
2015-Jun-28 10:32N 56°05' W 002°33'0 0.1
2015-Jun-28 09:32N 56°05' W 002°33'0 0.1
2015-Jun-28 08:32N 56°05' W 002°33'0 0.0
2015-Jun-28 07:32N 56°05' W 002°34'0 0.0
2015-Jun-28 06:32N 56°05' W 002°34'0 0.1
2015-Jun-28 05:23N 56°05' W 002°33'0 0.1
2015-Jun-28 04:26N 56°05' W 002°33'0 0.1
2015-Jun-28 03:26N 56°05' W 002°33'0 0.0
2015-Jun-28 02:26N 56°05' W 002°33'0 0.0
2015-Jun-28 01:29N 56°05' W 002°33'0 0.0
2015-Jun-28 00:29N 56°05' W 002°33'0 0.1
2015-Jun-27 23:32N 56°05' W 002°33'0 0.2
2015-Jun-27 22:32N 56°05' W 002°33'0 0.1
2015-Jun-27 21:32N 56°05' W 002°34'0 0.0
2015-Jun-27 20:29N 56°05' W 002°34'0 0.2
2015-Jun-27 19:29N 56°05' W 002°33'0 0.1
2015-Jun-27 18:17N 56°05' W 002°33'0 0.0
2015-Jun-27 17:32N 56°05' W 002°33'0 0.0
2015-Jun-27 16:23N 56°05' W 002°33'0 0.0
2015-Jun-27 15:23N 56°05' W 002°33'0 0.0
2015-Jun-27 14:26N 56°05' W 002°33'0 0.0
2015-Jun-27 13:26N 56°05' W 002°33'0 0.0
2015-Jun-27 12:26N 56°05' W 002°33'0 0.0
2015-Jun-27 11:29N 56°05' W 002°33'0 0.2
2015-Jun-27 10:29N 56°05' W 002°34'0 0.0
2015-Jun-27 09:32N 56°05' W 002°34'0 0.1
2015-Jun-27 08:32N 56°05' W 002°33'0 0.2
2015-Jun-27 07:32N 56°05' W 002°33'0 0.0
2015-Jun-27 06:32N 56°05' W 002°33'0 0.0
2015-Jun-27 05:32N 56°05' W 002°33'0 0.0
2015-Jun-27 04:32N 56°05' W 002°33'0 0.0
2015-Jun-27 03:32N 56°05' W 002°33'0 0.0
2015-Jun-27 02:23N 56°05' W 002°33'0 0.0
2015-Jun-27 01:23N 56°05' W 002°33'0 0.0
2015-Jun-27 00:26N 56°05' W 002°33'0 0.0
2015-Jun-26 23:26N 56°05' W 002°33'0 0.0
2015-Jun-26 22:26N 56°05' W 002°33'0 0.0
2015-Jun-26 21:29N 56°05' W 002°33'0 0.0
2015-Jun-26 20:29N 56°05' W 002°33'0 0.1
2015-Jun-26 19:32N 56°05' W 002°33'0 0.0
2015-Jun-26 18:29N 56°05' W 002°33'0 0.2
2015-Jun-26 17:17N 56°05' W 002°34'0 0.1
2015-Jun-26 16:20N 56°05' W 002°33'0 0.0
2015-Jun-26 15:32N 56°05' W 002°33'0 0.1
2015-Jun-26 14:32N 56°05' W 002°33'0 0.1
2015-Jun-26 13:32N 56°05' W 002°33'0 0.0
2015-Jun-26 12:23N 56°05' W 002°33'0 0.0
2015-Jun-26 11:23N 56°05' W 002°33'0 0.0
2015-Jun-26 10:26N 56°05' W 002°33'0 0.1
2015-Jun-26 09:26N 56°05' W 002°33'0 0.1
2015-Jun-26 08:29N 56°05' W 002°34'0 0.1
2015-Jun-26 07:29N 56°05' W 002°34'0 0.1
2015-Jun-26 06:29N 56°05' W 002°34'0 0.0
2015-Jun-26 05:32N 56°05' W 002°34'0 0.0
2015-Jun-26 04:32N 56°05' W 002°34'0 0.0
2015-Jun-26 03:32N 56°05' W 002°33'0 0.0
2015-Jun-26 02:32N 56°05' W 002°33'0 0.1
2015-Jun-26 01:32N 56°05' W 002°33'0 0.1
2015-Jun-26 00:32N 56°05' W 002°33'0 0.1
2015-Jun-25 23:32N 56°05' W 002°33'0 0.1
2015-Jun-25 22:23N 56°05' W 002°33'0 0.0
2015-Jun-25 21:23N 56°05' W 002°33'0 0.1
2015-Jun-25 20:26N 56°05' W 002°34'0 0.0
2015-Jun-25 19:26N 56°05' W 002°34'0 0.1
2015-Jun-25 18:29N 56°05' W 002°34'0 0.1
2015-Jun-25 17:26N 56°05' W 002°34'0 0.0
2015-Jun-25 16:29N 56°05' W 002°34'0 0.0
2015-Jun-25 15:32N 56°05' W 002°33'0 0.0
2015-Jun-25 14:29N 56°05' W 002°33'0 0.0
2015-Jun-25 13:32N 56°05' W 002°33'0 0.1
2015-Jun-25 11:05N 56°05' W 002°33'0 0.0
2015-Jun-25 10:32N 56°05' W 002°33'0 0.1
2015-Jun-25 09:32N 56°05' W 002°33'0 0.2
2015-Jun-25 08:32N 56°05' W 002°34'0 0.0
2015-Jun-25 07:23N 56°05' W 002°34'0 0.0
2015-Jun-25 06:26N 56°05' W 002°34'0 0.0
2015-Jun-25 05:26N 56°05' W 002°34'0 0.0
2015-Jun-25 04:29N 56°05' W 002°34'0 0.0
2015-Jun-25 03:29N 56°05' W 002°34'  

Dump ship's entire track history